sensor_id;sensor_type;location;lat;lon;timestamp;temperature;humidity
35668;DHT22;22158;59.280;17.806;2024-01-30T00:01:42;2.60;99.90
35668;DHT22;22158;59.280;17.806;2024-01-30T00:04:08;2.60;99.90
35668;DHT22;22158;59.280;17.806;2024-01-30T00:06:34;2.60;99.90
35668;DHT22;22158;59.280;17.806;2024-01-30T00:08:59;2.50;99.90
35668;DHT22;22158;59.280;17.806;2024-01-30T00:11:25;2.50;99.90
35668;DHT22;22158;59.280;17.806;2024-01-30T00:13:51;2.50;99.90
35668;DHT22;22158;59.280;17.806;2024-01-30T00:16:24;2.50;99.90
35668;DHT22;22158;59.280;17.806;2024-01-30T00:18:51;2.50;99.90
35668;DHT22;22158;59.280;17.806;2024-01-30T00:21:17;2.50;99.90
35668;DHT22;22158;59.280;17.806;2024-01-30T00:23:43;2.40;99.90
35668;DHT22;22158;59.280;17.806;2024-01-30T00:26:08;2.40;99.90
35668;DHT22;22158;59.280;17.806;2024-01-30T00:28:34;2.40;99.90
35668;DHT22;22158;59.280;17.806;2024-01-30T00:31:00;2.40;99.90
35668;DHT22;22158;59.280;17.806;2024-01-30T00:33:25;2.30;99.90
35668;DHT22;22158;59.280;17.806;2024-01-30T00:35:51;2.40;99.90
35668;DHT22;22158;59.280;17.806;2024-01-30T00:38:17;2.30;99.90
35668;DHT22;22158;59.280;17.806;2024-01-30T00:40:43;2.40;99.90
35668;DHT22;22158;59.280;17.806;2024-01-30T00:43:08;2.30;99.90
35668;DHT22;22158;59.280;17.806;2024-01-30T00:45:34;2.30;99.90
35668;DHT22;22158;59.280;17.806;2024-01-30T00:47:59;2.40;99.90
35668;DHT22;22158;59.280;17.806;2024-01-30T00:50:25;2.30;99.90
35668;DHT22;22158;59.280;17.806;2024-01-30T00:52:51;2.30;99.90
35668;DHT22;22158;59.280;17.806;2024-01-30T00:55:16;2.30;99.90
35668;DHT22;22158;59.280;17.806;2024-01-30T00:57:42;2.30;99.90
35668;DHT22;22158;59.280;17.806;2024-01-30T01:00:08;2.40;99.90
35668;DHT22;22158;59.280;17.806;2024-01-30T01:02:37;2.40;99.90
35668;DHT22;22158;59.280;17.806;2024-01-30T01:05:04;2.40;99.90
35668;DHT22;22158;59.280;17.806;2024-01-30T01:07:30;2.40;99.90
35668;DHT22;22158;59.280;17.806;2024-01-30T01:09:56;2.40;99.90
35668;DHT22;22158;59.280;17.806;2024-01-30T01:12:22;2.40;99.90
35668;DHT22;22158;59.280;17.806;2024-01-30T01:14:48;2.40;99.90
35668;DHT22;22158;59.280;17.806;2024-01-30T01:17:13;2.40;99.90
35668;DHT22;22158;59.280;17.806;2024-01-30T01:19:39;2.40;99.90
35668;DHT22;22158;59.280;17.806;2024-01-30T01:22:05;2.40;99.90
35668;DHT22;22158;59.280;17.806;2024-01-30T01:24:33;2.40;99.90
35668;DHT22;22158;59.280;17.806;2024-01-30T01:26:59;2.40;99.90
35668;DHT22;22158;59.280;17.806;2024-01-30T01:29:25;2.50;99.90
35668;DHT22;22158;59.280;17.806;2024-01-30T01:31:57;2.50;99.90
35668;DHT22;22158;59.280;17.806;2024-01-30T01:34:24;2.50;99.90
35668;DHT22;22158;59.280;17.806;2024-01-30T01:36:50;2.50;99.90
35668;DHT22;22158;59.280;17.806;2024-01-30T01:39:16;2.50;99.90
35668;DHT22;22158;59.280;17.806;2024-01-30T01:41:42;2.60;99.90
35668;DHT22;22158;59.280;17.806;2024-01-30T01:44:08;2.60;99.90
35668;DHT22;22158;59.280;17.806;2024-01-30T01:46:34;2.60;99.90
35668;DHT22;22158;59.280;17.806;2024-01-30T01:49:02;2.60;99.90
35668;DHT22;22158;59.280;17.806;2024-01-30T01:51:28;2.70;99.90
35668;DHT22;22158;59.280;17.806;2024-01-30T01:53:56;2.70;99.90
35668;DHT22;22158;59.280;17.806;2024-01-30T01:56:23;2.70;99.90
35668;DHT22;22158;59.280;17.806;2024-01-30T01:58:50;2.70;99.90
35668;DHT22;22158;59.280;17.806;2024-01-30T02:01:18;2.70;99.90
35668;DHT22;22158;59.280;17.806;2024-01-30T02:03:46;2.70;99.90
35668;DHT22;22158;59.280;17.806;2024-01-30T02:06:15;2.70;99.90
35668;DHT22;22158;59.280;17.806;2024-01-30T02:08:41;2.70;99.90
35668;DHT22;22158;59.280;17.806;2024-01-30T02:11:07;2.70;99.90
35668;DHT22;22158;59.280;17.806;2024-01-30T02:13:34;2.70;99.90
35668;DHT22;22158;59.280;17.806;2024-01-30T02:16:00;2.70;99.90
35668;DHT22;22158;59.280;17.806;2024-01-30T02:18:26;2.60;99.90
35668;DHT22;22158;59.280;17.806;2024-01-30T02:20:54;2.50;99.90
35668;DHT22;22158;59.280;17.806;2024-01-30T02:23:26;2.50;99.90
35668;DHT22;22158;59.280;17.806;2024-01-30T02:25:52;2.50;99.90
35668;DHT22;22158;59.280;17.806;2024-01-30T02:28:19;2.50;99.90
35668;DHT22;22158;59.280;17.806;2024-01-30T02:30:45;2.50;99.90
35668;DHT22;22158;59.280;17.806;2024-01-30T02:33:11;2.50;99.90
35668;DHT22;22158;59.280;17.806;2024-01-30T02:35:37;2.50;99.90
35668;DHT22;22158;59.280;17.806;2024-01-30T02:38:03;2.50;99.90
35668;DHT22;22158;59.280;17.806;2024-01-30T02:40:29;2.60;99.90
35668;DHT22;22158;59.280;17.806;2024-01-30T02:42:55;2.60;99.90
35668;DHT22;22158;59.280;17.806;2024-01-30T02:45:21;2.60;99.90
35668;DHT22;22158;59.280;17.806;2024-01-30T02:47:47;2.60;99.90
35668;DHT22;22158;59.280;17.806;2024-01-30T02:50:12;2.60;99.90
35668;DHT22;22158;59.280;17.806;2024-01-30T02:52:39;2.60;99.90
35668;DHT22;22158;59.280;17.806;2024-01-30T02:55:05;2.60;99.90
35668;DHT22;22158;59.280;17.806;2024-01-30T02:57:31;2.50;99.90
35668;DHT22;22158;59.280;17.806;2024-01-30T02:59:57;2.50;99.90
35668;DHT22;22158;59.280;17.806;2024-01-30T03:02:22;2.50;99.90
35668;DHT22;22158;59.280;17.806;2024-01-30T03:04:48;2.50;99.90
35668;DHT22;22158;59.280;17.806;2024-01-30T03:07:13;2.50;99.90
35668;DHT22;22158;59.280;17.806;2024-01-30T03:09:41;2.50;99.90
35668;DHT22;22158;59.280;17.806;2024-01-30T03:12:09;2.50;99.90
35668;DHT22;22158;59.280;17.806;2024-01-30T03:14:34;2.40;99.90
35668;DHT22;22158;59.280;17.806;2024-01-30T03:17:00;2.40;99.90
35668;DHT22;22158;59.280;17.806;2024-01-30T03:19:26;2.40;99.90
35668;DHT22;22158;59.280;17.806;2024-01-30T03:21:51;2.40;99.90
35668;DHT22;22158;59.280;17.806;2024-01-30T03:24:17;2.40;99.90
35668;DHT22;22158;59.280;17.806;2024-01-30T03:26:43;2.40;99.90
35668;DHT22;22158;59.280;17.806;2024-01-30T03:29:09;2.40;99.90
35668;DHT22;22158;59.280;17.806;2024-01-30T03:31:35;2.40;99.90
35668;DHT22;22158;59.280;17.806;2024-01-30T03:34:01;2.40;99.90
35668;DHT22;22158;59.280;17.806;2024-01-30T03:36:27;2.30;99.90
35668;DHT22;22158;59.280;17.806;2024-01-30T03:38:53;2.30;99.90
35668;DHT22;22158;59.280;17.806;2024-01-30T03:41:19;2.30;99.90
35668;DHT22;22158;59.280;17.806;2024-01-30T03:43:44;2.20;99.90
35668;DHT22;22158;59.280;17.806;2024-01-30T03:46:12;2.20;99.90
35668;DHT22;22158;59.280;17.806;2024-01-30T03:48:38;2.20;99.90
35668;DHT22;22158;59.280;17.806;2024-01-30T03:51:04;2.20;99.90
35668;DHT22;22158;59.280;17.806;2024-01-30T03:53:30;2.10;99.90
35668;DHT22;22158;59.280;17.806;2024-01-30T03:55:56;2.10;99.90
35668;DHT22;22158;59.280;17.806;2024-01-30T03:58:22;2.10;99.90
35668;DHT22;22158;59.280;17.806;2024-01-30T04:00:47;2.10;99.90
35668;DHT22;22158;59.280;17.806;2024-01-30T04:03:14;2.00;99.90
35668;DHT22;22158;59.280;17.806;2024-01-30T04:05:41;2.00;99.90
35668;DHT22;22158;59.280;17.806;2024-01-30T04:08:07;2.00;99.90
35668;DHT22;22158;59.280;17.806;2024-01-30T04:10:33;2.00;99.90
35668;DHT22;22158;59.280;17.806;2024-01-30T04:12:59;2.00;99.90
35668;DHT22;22158;59.280;17.806;2024-01-30T04:15:25;2.00;99.90
35668;DHT22;22158;59.280;17.806;2024-01-30T04:17:51;1.90;99.90
35668;DHT22;22158;59.280;17.806;2024-01-30T04:20:17;1.90;99.90
35668;DHT22;22158;59.280;17.806;2024-01-30T04:22:46;1.90;99.90
35668;DHT22;22158;59.280;17.806;2024-01-30T04:25:13;1.90;99.90
35668;DHT22;22158;59.280;17.806;2024-01-30T04:27:38;1.90;99.90
35668;DHT22;22158;59.280;17.806;2024-01-30T04:30:05;1.90;99.90
35668;DHT22;22158;59.280;17.806;2024-01-30T04:32:31;1.90;99.90
35668;DHT22;22158;59.280;17.806;2024-01-30T04:34:57;1.90;99.90
35668;DHT22;22158;59.280;17.806;2024-01-30T04:37:23;1.80;99.90
35668;DHT22;22158;59.280;17.806;2024-01-30T04:39:49;1.80;99.90
35668;DHT22;22158;59.280;17.806;2024-01-30T04:42:14;1.80;99.90
35668;DHT22;22158;59.280;17.806;2024-01-30T04:44:40;1.90;99.90
35668;DHT22;22158;59.280;17.806;2024-01-30T04:47:05;1.90;99.90
35668;DHT22;22158;59.280;17.806;2024-01-30T04:49:34;1.80;99.90
35668;DHT22;22158;59.280;17.806;2024-01-30T04:52:00;1.80;99.90
35668;DHT22;22158;59.280;17.806;2024-01-30T04:54:25;1.80;99.90
35668;DHT22;22158;59.280;17.806;2024-01-30T04:56:51;1.80;99.90
35668;DHT22;22158;59.280;17.806;2024-01-30T04:59:17;1.80;99.90
35668;DHT22;22158;59.280;17.806;2024-01-30T05:01:42;1.80;99.90
35668;DHT22;22158;59.280;17.806;2024-01-30T05:04:09;1.80;99.90
35668;DHT22;22158;59.280;17.806;2024-01-30T05:06:34;1.80;99.90
35668;DHT22;22158;59.280;17.806;2024-01-30T05:09:00;1.80;99.90
35668;DHT22;22158;59.280;17.806;2024-01-30T05:11:26;1.80;99.90
35668;DHT22;22158;59.280;17.806;2024-01-30T05:13:52;1.80;99.90
35668;DHT22;22158;59.280;17.806;2024-01-30T05:16:17;1.80;99.90
35668;DHT22;22158;59.280;17.806;2024-01-30T05:18:43;1.80;99.90
35668;DHT22;22158;59.280;17.806;2024-01-30T05:21:10;1.80;99.90
35668;DHT22;22158;59.280;17.806;2024-01-30T05:23:36;1.80;99.90
35668;DHT22;22158;59.280;17.806;2024-01-30T05:26:02;1.80;99.90
35668;DHT22;22158;59.280;17.806;2024-01-30T05:28:29;1.70;99.90
35668;DHT22;22158;59.280;17.806;2024-01-30T05:30:56;1.70;99.90
35668;DHT22;22158;59.280;17.806;2024-01-30T05:33:21;1.70;99.90
35668;DHT22;22158;59.280;17.806;2024-01-30T05:35:47;1.60;99.90
35668;DHT22;22158;59.280;17.806;2024-01-30T05:38:14;1.70;99.90
35668;DHT22;22158;59.280;17.806;2024-01-30T05:40:40;1.60;99.90
35668;DHT22;22158;59.280;17.806;2024-01-30T05:43:06;1.60;99.90
35668;DHT22;22158;59.280;17.806;2024-01-30T05:45:33;1.60;99.90
35668;DHT22;22158;59.280;17.806;2024-01-30T05:47:59;1.70;99.90
35668;DHT22;22158;59.280;17.806;2024-01-30T05:50:25;1.70;99.90
35668;DHT22;22158;59.280;17.806;2024-01-30T05:52:51;1.70;99.90
35668;DHT22;22158;59.280;17.806;2024-01-30T05:55:17;1.70;99.90
35668;DHT22;22158;59.280;17.806;2024-01-30T05:57:43;1.70;99.90
35668;DHT22;22158;59.280;17.806;2024-01-30T06:00:08;1.80;99.90
35668;DHT22;22158;59.280;17.806;2024-01-30T06:02:34;1.70;99.90
35668;DHT22;22158;59.280;17.806;2024-01-30T06:05:00;1.80;99.90
35668;DHT22;22158;59.280;17.806;2024-01-30T06:07:25;1.80;99.90
35668;DHT22;22158;59.280;17.806;2024-01-30T06:09:51;1.80;99.90
35668;DHT22;22158;59.280;17.806;2024-01-30T06:12:16;1.80;99.90
35668;DHT22;22158;59.280;17.806;2024-01-30T06:14:42;1.70;99.90
35668;DHT22;22158;59.280;17.806;2024-01-30T06:17:08;1.70;99.90
35668;DHT22;22158;59.280;17.806;2024-01-30T06:19:34;1.70;99.90
35668;DHT22;22158;59.280;17.806;2024-01-30T06:22:00;1.70;99.90
35668;DHT22;22158;59.280;17.806;2024-01-30T06:24:26;1.60;99.90
35668;DHT22;22158;59.280;17.806;2024-01-30T06:26:53;1.60;99.90
35668;DHT22;22158;59.280;17.806;2024-01-30T06:29:18;1.60;99.90
35668;DHT22;22158;59.280;17.806;2024-01-30T06:31:44;1.60;99.90
35668;DHT22;22158;59.280;17.806;2024-01-30T06:34:10;1.60;99.90
35668;DHT22;22158;59.280;17.806;2024-01-30T06:36:37;1.60;99.90
35668;DHT22;22158;59.280;17.806;2024-01-30T06:39:03;1.60;99.90
35668;DHT22;22158;59.280;17.806;2024-01-30T06:41:29;1.60;99.90
35668;DHT22;22158;59.280;17.806;2024-01-30T06:43:55;1.50;99.90
35668;DHT22;22158;59.280;17.806;2024-01-30T06:46:21;1.50;99.90
35668;DHT22;22158;59.280;17.806;2024-01-30T06:48:47;1.60;99.90
35668;DHT22;22158;59.280;17.806;2024-01-30T06:51:12;1.60;99.90
35668;DHT22;22158;59.280;17.806;2024-01-30T06:53:38;1.50;99.90
35668;DHT22;22158;59.280;17.806;2024-01-30T06:56:04;1.50;99.90
35668;DHT22;22158;59.280;17.806;2024-01-30T06:58:30;1.50;99.90
35668;DHT22;22158;59.280;17.806;2024-01-30T07:00:56;1.50;99.90
35668;DHT22;22158;59.280;17.806;2024-01-30T07:03:21;1.50;99.90
35668;DHT22;22158;59.280;17.806;2024-01-30T07:05:47;1.50;99.90
35668;DHT22;22158;59.280;17.806;2024-01-30T07:08:13;1.50;99.90
35668;DHT22;22158;59.280;17.806;2024-01-30T07:10:40;1.50;99.90
35668;DHT22;22158;59.280;17.806;2024-01-30T07:13:05;1.50;99.90
35668;DHT22;22158;59.280;17.806;2024-01-30T07:15:31;1.50;99.90
35668;DHT22;22158;59.280;17.806;2024-01-30T07:17:57;1.50;99.90
35668;DHT22;22158;59.280;17.806;2024-01-30T07:20:22;1.50;99.90
35668;DHT22;22158;59.280;17.806;2024-01-30T07:22:49;1.50;99.90
35668;DHT22;22158;59.280;17.806;2024-01-30T07:25:15;1.50;99.90
35668;DHT22;22158;59.280;17.806;2024-01-30T07:27:42;1.50;99.90
35668;DHT22;22158;59.280;17.806;2024-01-30T07:30:08;1.50;99.90
35668;DHT22;22158;59.280;17.806;2024-01-30T07:32:33;1.50;99.90
35668;DHT22;22158;59.280;17.806;2024-01-30T07:34:59;1.50;99.90
35668;DHT22;22158;59.280;17.806;2024-01-30T07:37:25;1.60;99.90
35668;DHT22;22158;59.280;17.806;2024-01-30T07:39:50;1.60;99.90
35668;DHT22;22158;59.280;17.806;2024-01-30T07:42:16;1.60;99.90
35668;DHT22;22158;59.280;17.806;2024-01-30T07:44:43;1.60;99.90
35668;DHT22;22158;59.280;17.806;2024-01-30T07:47:08;1.70;99.90
35668;DHT22;22158;59.280;17.806;2024-01-30T07:49:34;1.70;99.90
35668;DHT22;22158;59.280;17.806;2024-01-30T07:52:00;1.70;99.90
35668;DHT22;22158;59.280;17.806;2024-01-30T07:54:25;1.70;99.90
35668;DHT22;22158;59.280;17.806;2024-01-30T07:56:51;1.70;99.90
35668;DHT22;22158;59.280;17.806;2024-01-30T07:59:17;1.70;99.90
35668;DHT22;22158;59.280;17.806;2024-01-30T08:01:44;1.70;99.90
35668;DHT22;22158;59.280;17.806;2024-01-30T08:04:09;1.70;99.90
35668;DHT22;22158;59.280;17.806;2024-01-30T08:06:35;1.70;99.90
35668;DHT22;22158;59.280;17.806;2024-01-30T08:09:00;1.70;99.90
35668;DHT22;22158;59.280;17.806;2024-01-30T08:11:26;1.70;99.90
35668;DHT22;22158;59.280;17.806;2024-01-30T08:13:54;1.80;99.90
35668;DHT22;22158;59.280;17.806;2024-01-30T08:16:19;1.80;99.90
35668;DHT22;22158;59.280;17.806;2024-01-30T08:18:45;1.80;99.90
35668;DHT22;22158;59.280;17.806;2024-01-30T08:21:11;1.80;99.90
35668;DHT22;22158;59.280;17.806;2024-01-30T08:23:38;1.80;99.90
35668;DHT22;22158;59.280;17.806;2024-01-30T08:26:04;1.80;99.90
35668;DHT22;22158;59.280;17.806;2024-01-30T08:28:30;1.80;99.90
35668;DHT22;22158;59.280;17.806;2024-01-30T08:30:56;1.80;99.90
35668;DHT22;22158;59.280;17.806;2024-01-30T08:33:21;1.80;99.90
35668;DHT22;22158;59.280;17.806;2024-01-30T08:35:47;1.80;99.90
35668;DHT22;22158;59.280;17.806;2024-01-30T08:38:13;1.80;99.90
35668;DHT22;22158;59.280;17.806;2024-01-30T08:40:38;1.90;99.90
35668;DHT22;22158;59.280;17.806;2024-01-30T08:43:04;2.00;99.90
35668;DHT22;22158;59.280;17.806;2024-01-30T08:45:30;2.00;99.90
35668;DHT22;22158;59.280;17.806;2024-01-30T08:47:56;2.10;99.90
35668;DHT22;22158;59.280;17.806;2024-01-30T08:50:22;2.10;99.90
35668;DHT22;22158;59.280;17.806;2024-01-30T08:52:48;2.10;99.90
35668;DHT22;22158;59.280;17.806;2024-01-30T08:55:13;2.20;99.90
35668;DHT22;22158;59.280;17.806;2024-01-30T08:57:39;2.20;99.90
35668;DHT22;22158;59.280;17.806;2024-01-30T09:00:05;2.20;99.90
35668;DHT22;22158;59.280;17.806;2024-01-30T09:02:34;2.20;99.90
35668;DHT22;22158;59.280;17.806;2024-01-30T09:05:00;2.30;99.90
35668;DHT22;22158;59.280;17.806;2024-01-30T09:07:25;2.30;99.90
35668;DHT22;22158;59.280;17.806;2024-01-30T09:09:51;2.40;99.90
35668;DHT22;22158;59.280;17.806;2024-01-30T09:12:17;2.40;99.90
35668;DHT22;22158;59.280;17.806;2024-01-30T09:14:42;2.50;99.90
35668;DHT22;22158;59.280;17.806;2024-01-30T09:17:08;2.50;99.90
35668;DHT22;22158;59.280;17.806;2024-01-30T09:19:34;2.50;99.90
35668;DHT22;22158;59.280;17.806;2024-01-30T09:22:00;2.50;99.90
35668;DHT22;22158;59.280;17.806;2024-01-30T09:24:26;2.50;99.90
35668;DHT22;22158;59.280;17.806;2024-01-30T09:26:52;2.60;99.90
35668;DHT22;22158;59.280;17.806;2024-01-30T09:29:18;2.60;99.90
35668;DHT22;22158;59.280;17.806;2024-01-30T09:31:45;2.60;99.90
35668;DHT22;22158;59.280;17.806;2024-01-30T09:34:10;2.70;99.90
35668;DHT22;22158;59.280;17.806;2024-01-30T09:36:36;2.70;99.90
35668;DHT22;22158;59.280;17.806;2024-01-30T09:39:02;2.70;99.90
35668;DHT22;22158;59.280;17.806;2024-01-30T09:41:30;2.70;99.90
35668;DHT22;22158;59.280;17.806;2024-01-30T09:43:57;2.80;99.90
35668;DHT22;22158;59.280;17.806;2024-01-30T09:46:26;2.80;99.90
35668;DHT22;22158;59.280;17.806;2024-01-30T09:48:55;2.80;99.90
35668;DHT22;22158;59.280;17.806;2024-01-30T09:51:23;2.90;99.90
35668;DHT22;22158;59.280;17.806;2024-01-30T09:53:49;2.90;99.90
35668;DHT22;22158;59.280;17.806;2024-01-30T09:56:15;3.00;99.90
35668;DHT22;22158;59.280;17.806;2024-01-30T09:58:42;3.00;99.90
35668;DHT22;22158;59.280;17.806;2024-01-30T10:01:07;3.00;99.90
35668;DHT22;22158;59.280;17.806;2024-01-30T10:03:33;3.00;99.90
35668;DHT22;22158;59.280;17.806;2024-01-30T10:05:59;3.00;99.90
35668;DHT22;22158;59.280;17.806;2024-01-30T10:08:26;3.00;99.90
35668;DHT22;22158;59.280;17.806;2024-01-30T10:10:52;3.00;99.90
35668;DHT22;22158;59.280;17.806;2024-01-30T10:13:18;3.00;99.90
35668;DHT22;22158;59.280;17.806;2024-01-30T10:15:44;3.10;99.90
35668;DHT22;22158;59.280;17.806;2024-01-30T10:18:13;3.10;99.90
35668;DHT22;22158;59.280;17.806;2024-01-30T10:20:39;3.20;99.90
35668;DHT22;22158;59.280;17.806;2024-01-30T10:23:04;3.20;99.90
35668;DHT22;22158;59.280;17.806;2024-01-30T10:25:33;3.20;99.90
35668;DHT22;22158;59.280;17.806;2024-01-30T10:27:59;3.30;99.90
35668;DHT22;22158;59.280;17.806;2024-01-30T10:30:25;3.30;99.90
35668;DHT22;22158;59.280;17.806;2024-01-30T10:32:51;3.30;99.90
35668;DHT22;22158;59.280;17.806;2024-01-30T10:35:17;3.40;99.90
35668;DHT22;22158;59.280;17.806;2024-01-30T10:37:49;3.30;99.90
35668;DHT22;22158;59.280;17.806;2024-01-30T10:40:15;3.30;99.90
35668;DHT22;22158;59.280;17.806;2024-01-30T10:42:45;3.30;99.90
35668;DHT22;22158;59.280;17.806;2024-01-30T10:45:12;3.20;99.90
35668;DHT22;22158;59.280;17.806;2024-01-30T10:47:40;3.20;99.90
35668;DHT22;22158;59.280;17.806;2024-01-30T10:50:08;3.20;99.90
35668;DHT22;22158;59.280;17.806;2024-01-30T10:52:34;3.20;99.90
35668;DHT22;22158;59.280;17.806;2024-01-30T10:55:00;3.20;99.90
35668;DHT22;22158;59.280;17.806;2024-01-30T10:57:27;3.20;99.90
35668;DHT22;22158;59.280;17.806;2024-01-30T10:59:56;3.30;99.90
35668;DHT22;22158;59.280;17.806;2024-01-30T11:02:23;3.20;99.90
35668;DHT22;22158;59.280;17.806;2024-01-30T11:04:57;3.30;99.90
35668;DHT22;22158;59.280;17.806;2024-01-30T11:07:28;3.30;99.90
35668;DHT22;22158;59.280;17.806;2024-01-30T11:12:37;3.40;99.90
35668;DHT22;22158;59.280;17.806;2024-01-30T11:15:04;3.50;99.90
35668;DHT22;22158;59.280;17.806;2024-01-30T11:20:31;3.70;99.90
35668;DHT22;22158;59.280;17.806;2024-01-30T11:23:01;3.80;99.90
35668;DHT22;22158;59.280;17.806;2024-01-30T11:25:32;3.90;99.90
35668;DHT22;22158;59.280;17.806;2024-01-30T11:27:58;3.90;99.90
35668;DHT22;22158;59.280;17.806;2024-01-30T11:30:31;4.00;99.90
35668;DHT22;22158;59.280;17.806;2024-01-30T11:33:05;4.00;99.90
35668;DHT22;22158;59.280;17.806;2024-01-30T11:35:38;4.10;99.90
35668;DHT22;22158;59.280;17.806;2024-01-30T11:38:05;4.10;99.90
35668;DHT22;22158;59.280;17.806;2024-01-30T11:40:32;4.10;99.90
35668;DHT22;22158;59.280;17.806;2024-01-30T11:42:59;4.20;99.90
35668;DHT22;22158;59.280;17.806;2024-01-30T11:45:28;4.30;99.90
35668;DHT22;22158;59.280;17.806;2024-01-30T11:47:55;4.30;99.90
35668;DHT22;22158;59.280;17.806;2024-01-30T11:50:21;4.40;99.90
35668;DHT22;22158;59.280;17.806;2024-01-30T11:52:47;4.40;99.90
35668;DHT22;22158;59.280;17.806;2024-01-30T11:55:14;4.40;99.90
35668;DHT22;22158;59.280;17.806;2024-01-30T11:57:40;4.40;99.90
35668;DHT22;22158;59.280;17.806;2024-01-30T12:00:13;4.30;99.90
35668;DHT22;22158;59.280;17.806;2024-01-30T12:02:40;4.40;99.90
35668;DHT22;22158;59.280;17.806;2024-01-30T12:05:06;4.40;99.90
35668;DHT22;22158;59.280;17.806;2024-01-30T12:07:32;4.40;99.90
35668;DHT22;22158;59.280;17.806;2024-01-30T12:09:58;4.40;99.90
35668;DHT22;22158;59.280;17.806;2024-01-30T12:12:26;4.40;99.90
35668;DHT22;22158;59.280;17.806;2024-01-30T12:14:52;4.40;99.90
35668;DHT22;22158;59.280;17.806;2024-01-30T12:17:29;4.40;99.90
35668;DHT22;22158;59.280;17.806;2024-01-30T12:20:10;4.40;99.90
35668;DHT22;22158;59.280;17.806;2024-01-30T12:25:38;4.40;99.90
35668;DHT22;22158;59.280;17.806;2024-01-30T12:27:57;4.40;99.90
35668;DHT22;22158;59.280;17.806;2024-01-30T12:30:23;4.40;99.90
35668;DHT22;22158;59.280;17.806;2024-01-30T12:32:50;4.40;99.90
35668;DHT22;22158;59.280;17.806;2024-01-30T12:35:20;4.40;99.90
35668;DHT22;22158;59.280;17.806;2024-01-30T12:37:46;4.40;99.90
35668;DHT22;22158;59.280;17.806;2024-01-30T12:40:14;4.40;99.90
35668;DHT22;22158;59.280;17.806;2024-01-30T12:42:45;4.40;99.90
35668;DHT22;22158;59.280;17.806;2024-01-30T12:45:14;4.40;99.90
35668;DHT22;22158;59.280;17.806;2024-01-30T12:47:41;4.40;99.90
35668;DHT22;22158;59.280;17.806;2024-01-30T12:50:07;4.40;99.90
35668;DHT22;22158;59.280;17.806;2024-01-30T12:52:32;4.30;99.90
35668;DHT22;22158;59.280;17.806;2024-01-30T12:54:58;4.30;99.90
35668;DHT22;22158;59.280;17.806;2024-01-30T12:57:24;4.30;99.90
35668;DHT22;22158;59.280;17.806;2024-01-30T12:59:49;4.40;99.90
35668;DHT22;22158;59.280;17.806;2024-01-30T13:02:15;4.30;99.90
35668;DHT22;22158;59.280;17.806;2024-01-30T13:04:42;4.30;99.90
35668;DHT22;22158;59.280;17.806;2024-01-30T13:07:08;4.30;99.90
35668;DHT22;22158;59.280;17.806;2024-01-30T13:09:33;4.30;99.90
35668;DHT22;22158;59.280;17.806;2024-01-30T13:11:59;4.20;99.90
35668;DHT22;22158;59.280;17.806;2024-01-30T13:14:25;4.20;99.90
35668;DHT22;22158;59.280;17.806;2024-01-30T13:16:51;4.30;99.90
35668;DHT22;22158;59.280;17.806;2024-01-30T13:19:17;4.20;99.90
35668;DHT22;22158;59.280;17.806;2024-01-30T13:21:43;4.30;99.90
35668;DHT22;22158;59.280;17.806;2024-01-30T13:24:09;4.20;99.90
35668;DHT22;22158;59.280;17.806;2024-01-30T13:26:35;4.20;99.90
35668;DHT22;22158;59.280;17.806;2024-01-30T13:29:01;4.20;99.90
35668;DHT22;22158;59.280;17.806;2024-01-30T13:31:27;4.30;99.90
35668;DHT22;22158;59.280;17.806;2024-01-30T13:33:53;4.20;99.90
35668;DHT22;22158;59.280;17.806;2024-01-30T13:36:19;4.30;99.90
35668;DHT22;22158;59.280;17.806;2024-01-30T13:38:45;4.30;99.90
35668;DHT22;22158;59.280;17.806;2024-01-30T13:41:11;4.30;99.90
35668;DHT22;22158;59.280;17.806;2024-01-30T13:43:37;4.30;99.90
35668;DHT22;22158;59.280;17.806;2024-01-30T13:46:02;4.20;99.90
35668;DHT22;22158;59.280;17.806;2024-01-30T13:48:28;4.30;99.90
35668;DHT22;22158;59.280;17.806;2024-01-30T13:50:55;4.20;99.90
35668;DHT22;22158;59.280;17.806;2024-01-30T13:53:21;4.20;99.90
35668;DHT22;22158;59.280;17.806;2024-01-30T13:55:47;4.20;99.90
35668;DHT22;22158;59.280;17.806;2024-01-30T13:58:12;4.20;99.90
35668;DHT22;22158;59.280;17.806;2024-01-30T14:00:38;4.10;99.90
35668;DHT22;22158;59.280;17.806;2024-01-30T14:03:04;4.10;99.90
35668;DHT22;22158;59.280;17.806;2024-01-30T14:05:30;4.10;99.90
35668;DHT22;22158;59.280;17.806;2024-01-30T14:07:57;4.00;99.90
35668;DHT22;22158;59.280;17.806;2024-01-30T14:10:23;4.10;99.90
35668;DHT22;22158;59.280;17.806;2024-01-30T14:12:49;4.10;99.90
35668;DHT22;22158;59.280;17.806;2024-01-30T14:15:14;4.10;99.90
35668;DHT22;22158;59.280;17.806;2024-01-30T14:17:41;4.10;99.90
35668;DHT22;22158;59.280;17.806;2024-01-30T14:20:07;4.00;99.90
35668;DHT22;22158;59.280;17.806;2024-01-30T14:22:34;4.00;99.90
35668;DHT22;22158;59.280;17.806;2024-01-30T14:25:00;4.00;99.90
35668;DHT22;22158;59.280;17.806;2024-01-30T14:27:28;3.90;99.90
35668;DHT22;22158;59.280;17.806;2024-01-30T14:29:54;3.90;99.90
35668;DHT22;22158;59.280;17.806;2024-01-30T14:32:20;3.90;99.90
35668;DHT22;22158;59.280;17.806;2024-01-30T14:34:45;3.90;99.90
35668;DHT22;22158;59.280;17.806;2024-01-30T14:37:11;3.90;99.90
35668;DHT22;22158;59.280;17.806;2024-01-30T14:39:37;3.90;99.90
35668;DHT22;22158;59.280;17.806;2024-01-30T14:42:03;3.90;99.90
35668;DHT22;22158;59.280;17.806;2024-01-30T14:44:29;3.90;99.90
35668;DHT22;22158;59.280;17.806;2024-01-30T14:46:56;3.90;99.90
35668;DHT22;22158;59.280;17.806;2024-01-30T14:49:24;3.90;99.90
35668;DHT22;22158;59.280;17.806;2024-01-30T14:51:50;3.90;99.90
35668;DHT22;22158;59.280;17.806;2024-01-30T14:54:15;3.90;99.90
35668;DHT22;22158;59.280;17.806;2024-01-30T14:56:41;3.90;99.90
35668;DHT22;22158;59.280;17.806;2024-01-30T14:59:07;3.90;99.90
35668;DHT22;22158;59.280;17.806;2024-01-30T15:01:32;3.90;99.90
35668;DHT22;22158;59.280;17.806;2024-01-30T15:03:58;3.90;99.90
35668;DHT22;22158;59.280;17.806;2024-01-30T15:06:24;3.80;99.90
35668;DHT22;22158;59.280;17.806;2024-01-30T15:08:53;3.80;99.90
35668;DHT22;22158;59.280;17.806;2024-01-30T15:11:19;3.80;99.90
35668;DHT22;22158;59.280;17.806;2024-01-30T15:13:44;3.80;99.90
35668;DHT22;22158;59.280;17.806;2024-01-30T15:16:10;3.80;99.90
35668;DHT22;22158;59.280;17.806;2024-01-30T15:18:36;3.70;99.90
35668;DHT22;22158;59.280;17.806;2024-01-30T15:21:01;3.80;99.90
35668;DHT22;22158;59.280;17.806;2024-01-30T15:23:27;3.80;99.90
35668;DHT22;22158;59.280;17.806;2024-01-30T15:25:53;3.80;99.90
35668;DHT22;22158;59.280;17.806;2024-01-30T15:28:18;3.80;99.90
35668;DHT22;22158;59.280;17.806;2024-01-30T15:30:46;3.80;99.90
35668;DHT22;22158;59.280;17.806;2024-01-30T15:33:12;3.80;99.90